createdAt,value
2022-07-30T00:01:48.208Z,16.17
2022-07-30T00:04:15.270Z,13.43
2022-07-30T00:06:48.444Z,11.43
2022-07-30T00:09:15.485Z,14.07
2022-07-30T00:11:42.893Z,11.85
2022-07-30T00:14:14.121Z,12.93
2022-07-30T00:16:41.230Z,12.68
2022-07-30T00:19:08.645Z,14.73
2022-07-30T00:21:39.352Z,13.90
2022-07-30T00:24:07.044Z,14.48
2022-07-30T00:26:36.170Z,15.48
2022-07-30T00:29:03.832Z,14.98
2022-07-30T00:31:30.932Z,14.25
2022-07-30T00:33:58.124Z,12.68
2022-07-30T00:36:34.470Z,15.30
2022-07-30T00:39:04.713Z,13.82
2022-07-30T00:41:31.974Z,13.70
2022-07-30T00:43:59.962Z,18.13
2022-07-30T00:46:27.046Z,14.18
2022-07-30T00:48:54.187Z,14.48
2022-07-30T00:51:21.413Z,16.55
2022-07-30T00:53:51.298Z,15.60
2022-07-30T00:56:18.399Z,15.35
2022-07-30T00:58:45.573Z,15.40
2022-07-30T01:01:12.731Z,14.73
2022-07-30T01:03:42.795Z,14.95
2022-07-30T01:06:14.021Z,14.87
2022-07-30T01:08:43.296Z,15.45
2022-07-30T01:11:18.667Z,14.85
2022-07-30T01:13:46.164Z,14.90
2022-07-30T01:16:16.754Z,14.50
2022-07-30T01:19:03.512Z,14.35
2022-07-30T01:21:35.720Z,14.57
2022-07-30T01:24:10.673Z,14.68
2022-07-30T01:26:37.921Z,16.25
2022-07-30T01:29:06.254Z,13.63
2022-07-30T01:31:33.860Z,13.35
2022-07-30T01:34:01.759Z,14.70
2022-07-30T01:36:30.790Z,14.50
2022-07-30T01:38:58.831Z,16.90
2022-07-30T01:41:32.361Z,15.52
2022-07-30T01:43:59.709Z,13.68
2022-07-30T01:46:27.748Z,13.88
2022-07-30T01:48:55.300Z,14.45
2022-07-30T01:51:22.643Z,13.88
2022-07-30T01:53:51.417Z,13.47
2022-07-30T01:56:20.135Z,13.88
2022-07-30T01:59:01.378Z,13.55
2022-07-30T02:01:28.698Z,11.50
2022-07-30T02:03:56.249Z,13.73
2022-07-30T02:06:25.613Z,12.85
2022-07-30T02:08:57.094Z,14.82
2022-07-30T02:11:42.961Z,13.95
2022-07-30T02:14:15.351Z,13.80
2022-07-30T02:16:44.690Z,13.82
2022-07-30T02:19:16.181Z,15.07
2022-07-30T02:21:53.451Z,13.80
2022-07-30T02:24:22.513Z,16.58
2022-07-30T02:26:52.025Z,13.73
2022-07-30T02:29:20.075Z,13.80
2022-07-30T02:31:47.560Z,16.05
2022-07-30T02:34:15.011Z,13.85
2022-07-30T02:36:43.543Z,12.73
2022-07-30T02:39:12.480Z,14.27
2022-07-30T02:41:46.649Z,12.98
2022-07-30T02:44:19.387Z,12.73
2022-07-30T02:46:47.933Z,13.10
2022-07-30T02:49:22.549Z,12.35
2022-07-30T02:51:57.420Z,13.68
2022-07-30T02:54:27.677Z,13.40
2022-07-30T02:56:55.295Z,13.35
2022-07-30T02:59:22.887Z,15.40
2022-07-30T03:01:50.991Z,13.50
2022-07-30T03:04:19.919Z,11.73
2022-07-30T03:06:47.630Z,14.18
2022-07-30T03:09:16.839Z,11.60
2022-07-30T03:11:48.976Z,13.90
2022-07-30T03:14:16.088Z,14.43
2022-07-30T03:16:45.760Z,14.73
2022-07-30T03:19:14.831Z,12.60
2022-07-30T03:21:43.394Z,16.75
2022-07-30T03:24:11.606Z,13.25
2022-07-30T03:26:38.989Z,10.93
2022-07-30T03:29:07.161Z,11.20
2022-07-30T03:31:36.475Z,13.48
2022-07-30T03:34:08.940Z,11.18
2022-07-30T03:36:36.826Z,11.70
2022-07-30T03:39:12.458Z,13.00
2022-07-30T03:41:42.759Z,14.35
2022-07-30T03:44:10.221Z,12.47
2022-07-30T03:46:37.862Z,12.20
2022-07-30T03:49:06.001Z,14.70
2022-07-30T03:51:35.123Z,11.83
2022-07-30T03:54:02.586Z,13.90
2022-07-30T03:56:29.771Z,13.20
2022-07-30T03:59:00.489Z,11.32
2022-07-30T04:01:27.960Z,13.43
2022-07-30T04:03:57.286Z,13.45
2022-07-30T04:06:26.873Z,11.27
2022-07-30T04:08:53.922Z,14.70
2022-07-30T04:11:21.565Z,12.38
2022-07-30T04:14:07.999Z,14.02
2022-07-30T04:16:39.906Z,14.38
2022-07-30T04:19:11.306Z,13.90
2022-07-30T04:21:48.720Z,15.02
2022-07-30T04:24:17.803Z,15.48
2022-07-30T04:26:46.455Z,12.68
2022-07-30T04:29:18.140Z,13.75
2022-07-30T04:31:47.089Z,15.40
2022-07-30T04:34:18.020Z,16.60
2022-07-30T04:36:45.236Z,16.73
2022-07-30T04:39:13.738Z,14.90
2022-07-30T04:41:48.123Z,16.38
2022-07-30T04:44:21.473Z,17.15
2022-07-30T04:46:48.789Z,14.65
2022-07-30T04:49:17.117Z,15.23
2022-07-30T04:51:45.388Z,18.73
2022-07-30T04:54:15.280Z,17.70
2022-07-30T04:56:52.464Z,18.63
2022-07-30T04:59:21.934Z,16.52
2022-07-30T05:01:52.683Z,15.30
2022-07-30T05:04:20.277Z,16.70
2022-07-30T05:06:47.719Z,15.80
2022-07-30T05:09:18.270Z,18.20
2022-07-30T05:11:56.152Z,15.77
2022-07-30T05:14:26.610Z,17.60
2022-07-30T05:16:57.145Z,15.70
2022-07-30T05:19:29.827Z,17.17
2022-07-30T05:21:57.017Z,15.52
2022-07-30T05:24:24.102Z,15.53
2022-07-30T05:26:54.292Z,15.32
2022-07-30T05:29:21.379Z,15.02
2022-07-30T05:31:48.815Z,15.07
2022-07-30T05:34:16.105Z,14.30
2022-07-30T05:36:44.649Z,15.05
2022-07-30T05:39:11.727Z,17.43
2022-07-30T05:41:38.858Z,14.50
2022-07-30T05:44:07.601Z,15.35
2022-07-30T05:46:37.748Z,15.00
2022-07-30T05:49:06.396Z,17.48
2022-07-30T05:51:33.538Z,15.20
2022-07-30T05:54:03.282Z,15.90
2022-07-30T05:56:30.463Z,18.20
2022-07-30T05:59:00.130Z,15.03
2022-07-30T06:01:28.552Z,15.52
2022-07-30T06:03:55.793Z,16.15
2022-07-30T06:06:23.428Z,14.73
2022-07-30T06:08:50.681Z,11.82
2022-07-30T06:11:20.937Z,14.77
2022-07-30T06:13:48.098Z,13.35
2022-07-30T06:16:15.305Z,12.90
2022-07-30T06:18:42.579Z,12.13
2022-07-30T06:21:09.688Z,13.13
2022-07-30T06:23:39.818Z,11.85
2022-07-30T06:26:07.478Z,10.82
2022-07-30T06:28:38.748Z,13.43
2022-07-30T06:31:09.889Z,14.70
2022-07-30T06:33:38.370Z,13.48
2022-07-30T06:36:05.577Z,11.55
2022-07-30T06:38:32.789Z,9.63
2022-07-30T06:41:02.810Z,13.07
2022-07-30T06:43:31.955Z,10.75
2022-07-30T06:46:00.234Z,11.23
2022-07-30T06:48:31.197Z,11.32
2022-07-30T06:51:00.177Z,9.52
2022-07-30T06:53:27.514Z,9.05
2022-07-30T06:55:58.531Z,9.90
2022-07-30T06:58:27.767Z,9.23
2022-07-30T07:00:54.846Z,9.38
2022-07-30T07:03:23.121Z,7.18
2022-07-30T07:05:50.377Z,10.38
2022-07-30T07:08:22.228Z,8.97
2022-07-30T07:10:54.244Z,10.40
2022-07-30T07:13:21.316Z,9.20
2022-07-30T07:15:48.420Z,9.95
2022-07-30T07:18:15.663Z,10.50
2022-07-30T07:20:43.627Z,9.07
2022-07-30T07:23:12.107Z,8.10
2022-07-30T07:25:39.933Z,9.57
2022-07-30T07:28:11.921Z,9.10
2022-07-30T07:30:41.582Z,8.68
2022-07-30T07:33:12.176Z,8.52
2022-07-30T07:35:49.190Z,7.90
2022-07-30T07:38:20.046Z,5.50
2022-07-30T07:40:49.824Z,8.45
2022-07-30T07:43:17.010Z,8.27
2022-07-30T07:45:44.176Z,7.93
2022-07-30T07:48:11.355Z,7.10
2022-07-30T07:50:40.779Z,7.63
2022-07-30T07:53:07.905Z,5.83
2022-07-30T07:55:35.183Z,7.18
2022-07-30T07:58:03.429Z,8.20
2022-07-30T08:00:31.325Z,6.28
2022-07-30T08:02:58.387Z,6.05
2022-07-30T08:05:25.571Z,8.88
2022-07-30T08:08:12.606Z,5.80
2022-07-30T08:10:39.854Z,6.03
2022-07-30T08:13:48.145Z,6.03
2022-07-30T08:15:59.752Z,5.28
2022-07-30T08:18:26.835Z,6.63
2022-07-30T08:20:53.906Z,6.73
2022-07-30T08:23:22.328Z,5.35
2022-07-30T08:25:55.036Z,6.22
2022-07-30T08:28:35.919Z,5.93
2022-07-30T08:31:03.868Z,7.07
2022-07-30T08:33:31.278Z,4.65
2022-07-30T08:35:59.391Z,7.10
2022-07-30T08:38:33.821Z,5.97
2022-07-30T08:41:00.939Z,5.70
2022-07-30T08:43:33.357Z,7.88
2022-07-30T08:46:02.173Z,6.43
2022-07-30T08:48:30.166Z,4.97
2022-07-30T08:50:57.491Z,6.85
2022-07-30T08:53:34.168Z,5.22
2022-07-30T08:56:01.914Z,5.10
2022-07-30T08:58:30.337Z,6.30
2022-07-30T09:00:57.753Z,5.97
2022-07-30T09:03:24.957Z,4.00
2022-07-30T09:05:52.186Z,4.95
2022-07-30T09:08:21.768Z,5.30
2022-07-30T09:10:53.046Z,5.30
2022-07-30T09:13:35.355Z,5.78
2022-07-30T09:18:44.435Z,5.88
2022-07-30T09:21:17.671Z,4.97
2022-07-30T09:23:57.788Z,4.80
2022-07-30T09:26:25.124Z,3.85
2022-07-30T09:28:52.628Z,6.97
2022-07-30T09:31:23.684Z,4.28
2022-07-30T09:33:51.091Z,3.88
2022-07-30T09:36:19.367Z,5.03
2022-07-30T09:38:49.399Z,4.38
2022-07-30T09:41:37.793Z,4.82
2022-07-30T09:44:05.280Z,4.37
2022-07-30T09:46:47.591Z,5.00
2022-07-30T09:49:28.006Z,4.88
2022-07-30T09:52:06.796Z,4.47
2022-07-30T09:54:52.157Z,5.32
2022-07-30T09:57:27.869Z,5.65
2022-07-30T10:00:01.236Z,5.55
2022-07-30T10:02:31.986Z,5.43
2022-07-30T10:05:10.086Z,5.50
2022-07-30T10:07:47.741Z,5.53
2022-07-30T10:10:15.813Z,5.50
2022-07-30T10:12:45.282Z,5.23
2022-07-30T10:15:17.203Z,8.35
2022-07-30T10:17:46.060Z,4.90
2022-07-30T10:20:15.202Z,5.85
2022-07-30T10:22:44.154Z,4.97
2022-07-30T10:25:16.326Z,7.00
2022-07-30T10:27:43.871Z,7.40
2022-07-30T10:30:13.708Z,5.50
2022-07-30T10:32:42.649Z,6.23
2022-07-30T10:35:10.056Z,4.68
2022-07-30T10:37:45.590Z,5.45
2022-07-30T10:40:18.694Z,6.07
2022-07-30T10:42:53.339Z,5.18
2022-07-30T10:45:23.139Z,4.43
2022-07-30T10:47:54.952Z,4.50
2022-07-30T10:50:26.563Z,4.05
2022-07-30T10:53:00.603Z,5.00
2022-07-30T10:55:37.534Z,7.07
2022-07-30T10:58:09.292Z,5.00
2022-07-30T11:01:00.831Z,4.78
2022-07-30T11:03:40.433Z,5.83
2022-07-30T11:06:24.244Z,5.13
2022-07-30T11:08:57.387Z,5.90
2022-07-30T11:12:01.746Z,4.70
2022-07-30T11:14:17.731Z,5.40
2022-07-30T11:16:49.181Z,4.75
2022-07-30T11:19:56.394Z,5.40
2022-07-30T11:22:26.881Z,6.32
2022-07-30T11:24:55.935Z,6.28
2022-07-30T11:27:39.106Z,6.85
2022-07-30T11:30:18.071Z,5.82
2022-07-30T11:32:45.322Z,5.32
2022-07-30T11:35:25.360Z,4.80
2022-07-30T11:37:58.608Z,7.07
2022-07-30T11:40:52.110Z,5.97
2022-07-30T11:43:34.944Z,4.25
2022-07-30T11:46:10.919Z,5.78
2022-07-30T11:48:40.657Z,6.78
2022-07-30T11:51:08.701Z,4.63
2022-07-30T11:53:36.495Z,5.07
2022-07-30T11:56:04.020Z,5.45
2022-07-30T11:58:32.145Z,5.32
2022-07-30T12:01:03.517Z,3.90
2022-07-30T12:03:40.585Z,5.45
2022-07-30T12:06:09.400Z,8.77
2022-07-30T12:08:43.142Z,6.30
2022-07-30T12:11:12.469Z,6.80
2022-07-30T12:13:43.886Z,6.47
2022-07-30T12:16:13.905Z,4.97
2022-07-30T12:18:44.504Z,5.40
2022-07-30T12:21:12.685Z,5.18
2022-07-30T12:23:41.888Z,5.55
2022-07-30T12:26:09.119Z,4.50
2022-07-30T12:28:36.604Z,4.53
2022-07-30T12:31:07.013Z,5.90
2022-07-30T12:33:34.090Z,4.95
2022-07-30T12:36:01.796Z,6.18
2022-07-30T12:38:29.537Z,5.45
2022-07-30T12:41:01.033Z,5.00
2022-07-30T12:43:47.623Z,3.63
2022-07-30T12:46:18.062Z,4.63
2022-07-30T12:49:21.652Z,4.30
2022-07-30T12:51:59.951Z,4.77
2022-07-30T12:54:28.934Z,4.47
2022-07-30T12:57:01.197Z,4.85
2022-07-30T12:59:29.147Z,6.30
2022-07-30T13:02:05.880Z,4.57
2022-07-30T13:04:36.073Z,7.28
2022-07-30T13:07:10.898Z,6.95
2022-07-30T13:09:39.172Z,5.70
2022-07-30T13:12:06.657Z,5.80
2022-07-30T13:14:34.027Z,5.25
2022-07-30T13:17:03.511Z,5.55
2022-07-30T13:19:31.459Z,3.92
2022-07-30T13:21:58.596Z,5.03
2022-07-30T13:24:25.833Z,6.65
2022-07-30T13:26:52.899Z,5.80
2022-07-30T13:29:20.074Z,5.30
2022-07-30T13:31:47.216Z,5.38
2022-07-30T13:34:14.293Z,6.93
2022-07-30T13:36:41.816Z,4.80
2022-07-30T13:39:09.285Z,4.43
2022-07-30T13:41:36.443Z,5.30
2022-07-30T13:44:03.835Z,7.22
2022-07-30T13:46:30.959Z,7.22
2022-07-30T13:48:58.158Z,4.47
2022-07-30T13:51:27.614Z,4.68
2022-07-30T13:53:57.995Z,4.53
2022-07-30T13:56:25.053Z,5.13
2022-07-30T13:58:52.301Z,3.97
2022-07-30T14:01:19.530Z,4.95
2022-07-30T14:03:49.870Z,7.10
2022-07-30T14:06:17.994Z,5.28
2022-07-30T14:08:45.070Z,5.65
2022-07-30T14:11:12.224Z,6.43
2022-07-30T14:13:39.411Z,5.55
2022-07-30T14:16:22.651Z,6.50
2022-07-30T14:18:58.073Z,4.70
2022-07-30T14:21:25.650Z,5.90
2022-07-30T14:23:52.871Z,5.63
2022-07-30T14:26:20.081Z,8.13
2022-07-30T14:28:47.826Z,4.75
2022-07-30T14:31:14.989Z,4.10
2022-07-30T14:33:42.144Z,3.42
2022-07-30T14:36:12.747Z,4.72
2022-07-30T14:38:39.947Z,4.78
2022-07-30T14:41:08.769Z,5.40
2022-07-30T14:43:35.824Z,5.03
2022-07-30T14:46:02.850Z,5.75
2022-07-30T14:48:32.741Z,4.38
2022-07-30T14:51:14.786Z,4.97
2022-07-30T14:53:43.319Z,5.82
2022-07-30T14:56:14.464Z,3.10
2022-07-30T14:58:44.992Z,5.30
2022-07-30T15:01:15.894Z,5.68
2022-07-30T15:03:44.364Z,4.85
2022-07-30T15:06:12.766Z,6.90
2022-07-30T15:08:39.919Z,5.40
2022-07-30T15:11:08.084Z,5.03
2022-07-30T15:13:37.010Z,4.45
2022-07-30T15:16:08.359Z,5.85
2022-07-30T15:18:35.443Z,4.25
2022-07-30T15:21:03.290Z,6.55
2022-07-30T15:23:30.491Z,5.78
2022-07-30T15:25:57.629Z,4.85
2022-07-30T15:28:24.799Z,5.50
2022-07-30T15:30:51.989Z,6.63
2022-07-30T15:33:19.182Z,4.63
2022-07-30T15:35:46.669Z,5.57
2022-07-30T15:38:16.660Z,5.50
2022-07-30T15:40:44.327Z,5.25
2022-07-30T15:43:11.439Z,4.17
2022-07-30T15:45:55.544Z,13.63
2022-07-30T15:48:26.631Z,14.60
2022-07-30T15:50:54.814Z,15.07
2022-07-30T15:53:22.913Z,12.68
2022-07-30T15:55:49.997Z,10.77
2022-07-30T15:58:17.801Z,9.50
2022-07-30T16:00:44.932Z,7.78
2022-07-30T16:03:12.043Z,7.45
2022-07-30T16:05:51.338Z,6.43
2022-07-30T16:08:20.167Z,6.88
2022-07-30T16:10:47.697Z,6.80
2022-07-30T16:13:14.798Z,5.35
2022-07-30T16:15:44.798Z,7.07
2022-07-30T16:18:11.999Z,5.10
2022-07-30T16:20:39.245Z,7.25
2022-07-30T16:23:11.938Z,6.07
2022-07-30T16:25:40.334Z,5.53
2022-07-30T16:28:07.437Z,6.18
2022-07-30T16:30:34.575Z,6.93
2022-07-30T16:33:01.710Z,8.32
2022-07-30T16:35:28.834Z,5.50
2022-07-30T16:37:57.885Z,5.30
2022-07-30T16:40:24.968Z,6.18
2022-07-30T16:42:52.995Z,6.60
2022-07-30T16:45:20.086Z,6.65
2022-07-30T16:47:48.681Z,6.50
2022-07-30T16:50:16.890Z,5.25
2022-07-30T16:52:43.977Z,6.97
2022-07-30T16:55:13.167Z,5.93
2022-07-30T16:57:40.252Z,8.82
2022-07-30T17:00:08.455Z,9.25
2022-07-30T17:02:35.575Z,7.88
2022-07-30T17:05:02.724Z,14.60
2022-07-30T17:07:29.835Z,11.48
2022-07-30T17:09:58.603Z,7.97
2022-07-30T17:12:27.099Z,7.72
2022-07-30T17:14:54.900Z,7.75
2022-07-30T17:17:22.294Z,7.07
2022-07-30T17:19:49.352Z,6.00
2022-07-30T17:22:16.472Z,6.93
2022-07-30T17:24:43.588Z,5.97
2022-07-30T17:27:10.717Z,4.93
2022-07-30T17:29:50.363Z,6.75
2022-07-30T17:32:18.219Z,6.90
2022-07-30T17:34:45.353Z,5.03
2022-07-30T17:37:15.211Z,8.27
2022-07-30T17:40:19.627Z,7.55
2022-07-30T17:42:29.389Z,6.88
2022-07-30T17:44:56.618Z,7.20
2022-07-30T17:47:23.668Z,6.65
2022-07-30T17:49:50.772Z,6.68
2022-07-30T17:52:17.836Z,6.93
2022-07-30T17:54:44.894Z,7.68
2022-07-30T17:57:13.166Z,5.40
2022-07-30T17:59:40.288Z,5.97
2022-07-30T18:02:07.569Z,5.10
2022-07-30T18:04:34.786Z,6.88
2022-07-30T18:07:02.171Z,6.28
2022-07-30T18:09:31.111Z,4.85
2022-07-30T18:12:06.314Z,6.15
2022-07-30T18:14:33.633Z,5.88
2022-07-30T18:17:05.284Z,5.55
2022-07-30T18:19:32.512Z,4.85
2022-07-30T18:22:02.839Z,3.38
2022-07-30T18:24:33.578Z,6.38
2022-07-30T18:27:07.758Z,5.20
2022-07-30T18:30:02.758Z,5.93
2022-07-30T18:32:29.871Z,5.57
2022-07-30T18:35:01.876Z,4.53
2022-07-30T18:37:41.519Z,5.13
2022-07-30T18:40:11.281Z,4.55
2022-07-30T18:42:38.431Z,5.10
2022-07-30T18:45:08.784Z,4.85
2022-07-30T18:47:35.855Z,6.72
2022-07-30T18:50:03.712Z,5.50
2022-07-30T18:52:30.873Z,4.43
2022-07-30T18:55:00.874Z,5.07
2022-07-30T18:57:27.914Z,4.57
2022-07-30T18:59:54.980Z,4.25
2022-07-30T19:02:25.490Z,6.10
2022-07-30T19:04:53.637Z,6.70
2022-07-30T19:07:21.545Z,6.63
2022-07-30T19:09:50.999Z,7.63
2022-07-30T19:12:18.082Z,6.22
2022-07-30T19:14:46.374Z,5.18
2022-07-30T19:17:18.225Z,5.18
2022-07-30T19:19:47.215Z,5.30
2022-07-30T19:22:14.879Z,9.30
2022-07-30T19:24:41.927Z,6.45
2022-07-30T19:27:13.682Z,7.32
2022-07-30T19:29:42.033Z,5.85
2022-07-30T19:32:09.236Z,4.72
2022-07-30T19:34:36.638Z,5.72
2022-07-30T19:37:03.977Z,5.63
2022-07-30T19:39:31.237Z,7.85
2022-07-30T19:42:02.203Z,5.50
2022-07-30T19:44:32.690Z,5.05
2022-07-30T19:47:00.061Z,6.00
2022-07-30T19:49:29.435Z,6.13
2022-07-30T19:52:10.146Z,6.50
2022-07-30T19:54:44.294Z,5.57
2022-07-30T19:57:11.599Z,4.03
2022-07-30T19:59:45.775Z,5.43
2022-07-30T20:02:26.628Z,4.07
2022-07-30T20:04:55.125Z,3.78
2022-07-30T20:07:23.063Z,5.70
2022-07-30T20:09:54.765Z,6.50
2022-07-30T20:12:21.881Z,6.20
2022-07-30T20:14:51.572Z,4.70
2022-07-30T20:17:21.312Z,8.27
2022-07-30T20:19:49.869Z,8.30
2022-07-30T20:22:19.099Z,5.95
2022-07-30T20:24:48.536Z,5.33
2022-07-30T20:27:36.188Z,5.87
2022-07-30T20:30:05.529Z,8.63
2022-07-30T20:32:32.885Z,8.27
2022-07-30T20:35:00.237Z,8.38
2022-07-30T20:37:29.822Z,6.18
2022-07-30T20:39:59.889Z,6.30
2022-07-30T20:42:27.528Z,6.63
2022-07-30T20:45:05.877Z,7.03
2022-07-30T20:47:38.725Z,5.77
2022-07-30T20:50:09.597Z,6.90
2022-07-30T20:52:40.041Z,7.28
2022-07-30T20:55:08.385Z,7.07
2022-07-30T20:57:56.742Z,7.80
2022-07-30T21:00:27.403Z,8.77
2022-07-30T21:02:54.474Z,6.83
2022-07-30T21:05:21.620Z,7.68
2022-07-30T21:07:52.752Z,9.18
2022-07-30T21:10:23.459Z,9.07
2022-07-30T21:12:53.394Z,8.65
2022-07-30T21:15:32.654Z,8.73
2022-07-30T21:20:47.588Z,8.88
2022-07-30T21:23:18.957Z,8.82
2022-07-30T21:26:00.575Z,8.82
2022-07-30T21:28:35.254Z,7.70
2022-07-30T21:31:03.587Z,9.00
2022-07-30T21:33:31.210Z,7.40
2022-07-30T21:35:59.114Z,8.43
2022-07-30T21:38:32.073Z,9.45
2022-07-30T21:41:00.760Z,9.20
2022-07-30T21:43:30.048Z,11.45
2022-07-30T21:46:03.678Z,10.40
2022-07-30T21:48:35.838Z,9.63
2022-07-30T21:51:02.912Z,9.75
2022-07-30T21:53:46.057Z,13.57
2022-07-30T21:56:13.991Z,12.65
2022-07-30T21:58:41.664Z,8.55
2022-07-30T22:01:18.039Z,11.50
2022-07-30T22:04:03.129Z,11.32
2022-07-30T22:06:36.074Z,9.45
2022-07-30T22:09:26.315Z,9.82
2022-07-30T22:11:56.452Z,10.73
2022-07-30T22:14:25.501Z,8.57
2022-07-30T22:16:52.792Z,8.70
2022-07-30T22:19:21.659Z,8.68
2022-07-30T22:21:49.045Z,11.65
2022-07-30T22:24:29.681Z,10.40
2022-07-30T22:26:59.890Z,9.77
2022-07-30T22:29:34.294Z,8.80
2022-07-30T22:32:02.578Z,8.98
2022-07-30T22:34:29.865Z,10.75
2022-07-30T22:36:57.460Z,8.70
2022-07-30T22:39:31.812Z,8.13
2022-07-30T22:42:12.618Z,7.80
2022-07-30T22:44:39.985Z,7.73
2022-07-30T22:47:21.028Z,8.93
2022-07-30T22:50:08.227Z,8.20
2022-07-30T22:52:44.189Z,7.20
2022-07-30T22:55:22.006Z,8.43
2022-07-30T22:57:49.849Z,12.05
2022-07-30T23:00:28.009Z,9.63
2022-07-30T23:02:56.201Z,7.53
2022-07-30T23:05:23.574Z,8.70
2022-07-30T23:07:53.380Z,9.23
2022-07-30T23:10:21.299Z,9.50
2022-07-30T23:12:32.654Z,8.75
2022-07-30T23:12:59.338Z,8.13
2022-07-30T23:15:26.601Z,7.50
2022-07-30T23:17:53.689Z,9.70
2022-07-30T23:20:21.307Z,9.93
2022-07-30T23:22:49.805Z,8.32
2022-07-30T23:25:20.956Z,8.48
2022-07-30T23:27:49.617Z,9.68
2022-07-30T23:30:16.689Z,8.15
2022-07-30T23:32:50.472Z,7.53
2022-07-30T23:35:18.908Z,8.15
2022-07-30T23:37:49.403Z,8.90
2022-07-30T23:40:17.338Z,6.55
2022-07-30T23:42:44.508Z,7.60
2022-07-30T23:45:14.682Z,7.25
2022-07-30T23:47:51.268Z,9.52
2022-07-30T23:50:32.782Z,8.80
2022-07-30T23:53:00.456Z,8.70
2022-07-30T23:55:27.732Z,9.68
2022-07-30T23:57:54.884Z,9.05
